sensor_id;sensor_type;location;lat;lon;timestamp;P1;durP1;ratioP1;P2;durP2;ratioP2
62572;SDS011;48626;51.678;5.806;2022-07-23T00:00:48;7.55;;;3.50;;
62572;SDS011;48626;51.678;5.806;2022-07-23T00:03:14;8.95;;;3.50;;
62572;SDS011;48626;51.678;5.806;2022-07-23T00:05:40;4.85;;;3.50;;
62572;SDS011;48626;51.678;5.806;2022-07-23T00:08:06;9.40;;;3.92;;
62572;SDS011;48626;51.678;5.806;2022-07-23T00:10:32;6.38;;;3.47;;
62572;SDS011;48626;51.678;5.806;2022-07-23T00:12:58;8.05;;;3.78;;
62572;SDS011;48626;51.678;5.806;2022-07-23T00:15:24;6.13;;;3.35;;
62572;SDS011;48626;51.678;5.806;2022-07-23T00:17:49;6.53;;;3.50;;
62572;SDS011;48626;51.678;5.806;2022-07-23T00:20:15;6.63;;;3.60;;
62572;SDS011;48626;51.678;5.806;2022-07-23T00:22:47;8.07;;;3.65;;
62572;SDS011;48626;51.678;5.806;2022-07-23T00:25:17;5.53;;;3.35;;
62572;SDS011;48626;51.678;5.806;2022-07-23T00:27:44;7.80;;;3.30;;
62572;SDS011;48626;51.678;5.806;2022-07-23T00:30:10;13.23;;;3.63;;
62572;SDS011;48626;51.678;5.806;2022-07-23T00:32:58;6.57;;;3.65;;
62572;SDS011;48626;51.678;5.806;2022-07-23T00:35:31;5.50;;;3.42;;
62572;SDS011;48626;51.678;5.806;2022-07-23T00:38:00;5.82;;;3.40;;
62572;SDS011;48626;51.678;5.806;2022-07-23T00:40:26;7.05;;;3.95;;
62572;SDS011;48626;51.678;5.806;2022-07-23T00:42:52;6.20;;;3.38;;
62572;SDS011;48626;51.678;5.806;2022-07-23T00:45:18;7.72;;;3.75;;
62572;SDS011;48626;51.678;5.806;2022-07-23T00:47:44;6.90;;;3.95;;
62572;SDS011;48626;51.678;5.806;2022-07-23T00:50:10;5.97;;;3.92;;
62572;SDS011;48626;51.678;5.806;2022-07-23T00:52:37;5.28;;;3.47;;
62572;SDS011;48626;51.678;5.806;2022-07-23T00:55:03;7.63;;;3.80;;
62572;SDS011;48626;51.678;5.806;2022-07-23T00:57:30;12.40;;;3.85;;
62572;SDS011;48626;51.678;5.806;2022-07-23T00:59:56;8.43;;;3.92;;
62572;SDS011;48626;51.678;5.806;2022-07-23T01:02:23;7.63;;;3.75;;
62572;SDS011;48626;51.678;5.806;2022-07-23T01:04:49;5.78;;;4.05;;
62572;SDS011;48626;51.678;5.806;2022-07-23T01:07:15;9.15;;;3.90;;
62572;SDS011;48626;51.678;5.806;2022-07-23T01:09:42;8.27;;;4.00;;
62572;SDS011;48626;51.678;5.806;2022-07-23T01:12:09;9.98;;;4.43;;
62572;SDS011;48626;51.678;5.806;2022-07-23T01:14:34;7.93;;;3.78;;
62572;SDS011;48626;51.678;5.806;2022-07-23T01:17:00;6.25;;;3.97;;
62572;SDS011;48626;51.678;5.806;2022-07-23T01:19:26;6.93;;;4.07;;
62572;SDS011;48626;51.678;5.806;2022-07-23T01:21:51;10.80;;;4.47;;
62572;SDS011;48626;51.678;5.806;2022-07-23T01:24:18;8.68;;;4.68;;
62572;SDS011;48626;51.678;5.806;2022-07-23T01:26:45;11.70;;;4.47;;
62572;SDS011;48626;51.678;5.806;2022-07-23T01:29:11;6.47;;;4.47;;
62572;SDS011;48626;51.678;5.806;2022-07-23T01:31:37;6.47;;;4.47;;
62572;SDS011;48626;51.678;5.806;2022-07-23T01:34:03;8.55;;;4.15;;
62572;SDS011;48626;51.678;5.806;2022-07-23T01:36:29;9.48;;;4.55;;
62572;SDS011;48626;51.678;5.806;2022-07-23T01:38:55;10.07;;;4.22;;
62572;SDS011;48626;51.678;5.806;2022-07-23T01:41:21;7.22;;;4.05;;
62572;SDS011;48626;51.678;5.806;2022-07-23T01:43:47;8.68;;;4.20;;
62572;SDS011;48626;51.678;5.806;2022-07-23T01:46:12;9.82;;;3.80;;
62572;SDS011;48626;51.678;5.806;2022-07-23T01:48:38;5.43;;;4.20;;
62572;SDS011;48626;51.678;5.806;2022-07-23T01:51:04;5.82;;;4.35;;
62572;SDS011;48626;51.678;5.806;2022-07-23T01:53:30;6.45;;;4.40;;
62572;SDS011;48626;51.678;5.806;2022-07-23T01:55:58;5.32;;;4.20;;
62572;SDS011;48626;51.678;5.806;2022-07-23T01:58:25;7.88;;;4.00;;
62572;SDS011;48626;51.678;5.806;2022-07-23T02:00:52;8.40;;;4.80;;
62572;SDS011;48626;51.678;5.806;2022-07-23T02:03:18;8.13;;;4.35;;
62572;SDS011;48626;51.678;5.806;2022-07-23T02:05:43;7.53;;;4.47;;
62572;SDS011;48626;51.678;5.806;2022-07-23T02:08:09;10.32;;;4.70;;
62572;SDS011;48626;51.678;5.806;2022-07-23T02:10:35;8.25;;;4.55;;
62572;SDS011;48626;51.678;5.806;2022-07-23T02:13:00;7.63;;;4.90;;
62572;SDS011;48626;51.678;5.806;2022-07-23T02:15:26;6.40;;;4.50;;
62572;SDS011;48626;51.678;5.806;2022-07-23T02:17:53;6.82;;;4.45;;
62572;SDS011;48626;51.678;5.806;2022-07-23T02:20:19;12.35;;;4.95;;
62572;SDS011;48626;51.678;5.806;2022-07-23T02:22:45;10.35;;;4.75;;
62572;SDS011;48626;51.678;5.806;2022-07-23T02:25:11;7.35;;;4.40;;
62572;SDS011;48626;51.678;5.806;2022-07-23T02:27:36;8.35;;;4.43;;
62572;SDS011;48626;51.678;5.806;2022-07-23T02:30:02;7.30;;;4.40;;
62572;SDS011;48626;51.678;5.806;2022-07-23T02:32:29;10.13;;;4.70;;
62572;SDS011;48626;51.678;5.806;2022-07-23T02:34:55;10.27;;;4.78;;
62572;SDS011;48626;51.678;5.806;2022-07-23T02:37:21;9.13;;;5.10;;
62572;SDS011;48626;51.678;5.806;2022-07-23T02:39:46;7.60;;;4.15;;
62572;SDS011;48626;51.678;5.806;2022-07-23T02:42:13;7.80;;;4.97;;
62572;SDS011;48626;51.678;5.806;2022-07-23T02:44:39;19.05;;;9.48;;
62572;SDS011;48626;51.678;5.806;2022-07-23T02:47:05;21.33;;;11.13;;
62572;SDS011;48626;51.678;5.806;2022-07-23T02:49:30;14.10;;;7.68;;
62572;SDS011;48626;51.678;5.806;2022-07-23T02:51:56;17.83;;;7.47;;
62572;SDS011;48626;51.678;5.806;2022-07-23T02:54:22;21.33;;;8.00;;
62572;SDS011;48626;51.678;5.806;2022-07-23T02:56:47;13.52;;;7.70;;
62572;SDS011;48626;51.678;5.806;2022-07-23T02:59:15;10.00;;;6.40;;
62572;SDS011;48626;51.678;5.806;2022-07-23T03:01:41;9.60;;;5.45;;
62572;SDS011;48626;51.678;5.806;2022-07-23T03:04:06;16.02;;;7.90;;
62572;SDS011;48626;51.678;5.806;2022-07-23T03:06:32;14.70;;;7.38;;
62572;SDS011;48626;51.678;5.806;2022-07-23T03:08:58;15.85;;;6.88;;
62572;SDS011;48626;51.678;5.806;2022-07-23T03:11:24;20.00;;;8.15;;
62572;SDS011;48626;51.678;5.806;2022-07-23T03:13:49;12.82;;;6.30;;
62572;SDS011;48626;51.678;5.806;2022-07-23T03:16:15;13.25;;;7.60;;
62572;SDS011;48626;51.678;5.806;2022-07-23T03:18:41;13.27;;;6.03;;
62572;SDS011;48626;51.678;5.806;2022-07-23T03:21:06;10.50;;;6.53;;
62572;SDS011;48626;51.678;5.806;2022-07-23T03:23:32;10.60;;;6.15;;
62572;SDS011;48626;51.678;5.806;2022-07-23T03:25:58;11.70;;;5.63;;
62572;SDS011;48626;51.678;5.806;2022-07-23T03:28:23;8.75;;;5.30;;
62572;SDS011;48626;51.678;5.806;2022-07-23T03:30:49;9.48;;;4.97;;
62572;SDS011;48626;51.678;5.806;2022-07-23T03:33:15;9.45;;;5.68;;
62572;SDS011;48626;51.678;5.806;2022-07-23T03:35:46;12.43;;;5.60;;
62572;SDS011;48626;51.678;5.806;2022-07-23T03:38:12;13.18;;;5.85;;
62572;SDS011;48626;51.678;5.806;2022-07-23T03:40:38;8.25;;;5.32;;
62572;SDS011;48626;51.678;5.806;2022-07-23T03:43:04;11.32;;;5.72;;
62572;SDS011;48626;51.678;5.806;2022-07-23T03:45:30;7.78;;;5.50;;
62572;SDS011;48626;51.678;5.806;2022-07-23T03:47:55;6.88;;;5.00;;
62572;SDS011;48626;51.678;5.806;2022-07-23T03:50:21;6.78;;;4.72;;
62572;SDS011;48626;51.678;5.806;2022-07-23T03:52:47;6.28;;;4.68;;
62572;SDS011;48626;51.678;5.806;2022-07-23T03:55:13;8.82;;;4.95;;
62572;SDS011;48626;51.678;5.806;2022-07-23T03:57:39;8.80;;;5.28;;
62572;SDS011;48626;51.678;5.806;2022-07-23T04:00:05;9.32;;;5.65;;
62572;SDS011;48626;51.678;5.806;2022-07-23T04:02:34;9.68;;;5.05;;
62572;SDS011;48626;51.678;5.806;2022-07-23T04:05:00;10.82;;;5.90;;
62572;SDS011;48626;51.678;5.806;2022-07-23T04:07:26;8.55;;;5.30;;
62572;SDS011;48626;51.678;5.806;2022-07-23T04:09:52;10.48;;;5.60;;
62572;SDS011;48626;51.678;5.806;2022-07-23T04:12:18;8.40;;;5.22;;
62572;SDS011;48626;51.678;5.806;2022-07-23T04:14:43;10.50;;;5.25;;
62572;SDS011;48626;51.678;5.806;2022-07-23T04:17:10;7.53;;;5.15;;
62572;SDS011;48626;51.678;5.806;2022-07-23T04:19:36;9.20;;;5.35;;
62572;SDS011;48626;51.678;5.806;2022-07-23T04:22:05;8.43;;;5.25;;
62572;SDS011;48626;51.678;5.806;2022-07-23T04:24:31;9.68;;;5.30;;
62572;SDS011;48626;51.678;5.806;2022-07-23T04:26:57;11.60;;;6.00;;
62572;SDS011;48626;51.678;5.806;2022-07-23T04:29:23;9.55;;;5.25;;
62572;SDS011;48626;51.678;5.806;2022-07-23T04:31:49;12.90;;;5.70;;
62572;SDS011;48626;51.678;5.806;2022-07-23T04:34:15;14.70;;;5.75;;
62572;SDS011;48626;51.678;5.806;2022-07-23T04:36:40;8.45;;;5.80;;
62572;SDS011;48626;51.678;5.806;2022-07-23T04:39:06;12.93;;;6.32;;
62572;SDS011;48626;51.678;5.806;2022-07-23T04:41:32;11.13;;;6.20;;
62572;SDS011;48626;51.678;5.806;2022-07-23T04:43:58;14.25;;;6.10;;
62572;SDS011;48626;51.678;5.806;2022-07-23T04:46:24;13.15;;;6.57;;
62572;SDS011;48626;51.678;5.806;2022-07-23T04:48:50;8.95;;;5.80;;
62572;SDS011;48626;51.678;5.806;2022-07-23T04:51:15;12.63;;;6.25;;
62572;SDS011;48626;51.678;5.806;2022-07-23T04:53:41;12.38;;;6.38;;
62572;SDS011;48626;51.678;5.806;2022-07-23T04:56:06;11.23;;;6.15;;
62572;SDS011;48626;51.678;5.806;2022-07-23T04:58:32;8.70;;;5.93;;
62572;SDS011;48626;51.678;5.806;2022-07-23T05:00:58;12.25;;;6.38;;
62572;SDS011;48626;51.678;5.806;2022-07-23T05:03:23;7.60;;;5.97;;
62572;SDS011;48626;51.678;5.806;2022-07-23T05:05:49;11.75;;;6.13;;
62572;SDS011;48626;51.678;5.806;2022-07-23T05:08:15;11.25;;;6.63;;
62572;SDS011;48626;51.678;5.806;2022-07-23T05:10:40;10.82;;;6.88;;
62572;SDS011;48626;51.678;5.806;2022-07-23T05:13:06;12.23;;;6.80;;
62572;SDS011;48626;51.678;5.806;2022-07-23T05:15:32;12.48;;;7.13;;
62572;SDS011;48626;51.678;5.806;2022-07-23T05:17:57;9.95;;;7.03;;
62572;SDS011;48626;51.678;5.806;2022-07-23T05:20:23;14.48;;;7.82;;
62572;SDS011;48626;51.678;5.806;2022-07-23T05:22:49;14.50;;;7.47;;
62572;SDS011;48626;51.678;5.806;2022-07-23T05:25:14;10.43;;;7.55;;
62572;SDS011;48626;51.678;5.806;2022-07-23T05:27:40;12.55;;;7.72;;
62572;SDS011;48626;51.678;5.806;2022-07-23T05:30:06;14.38;;;7.40;;
62572;SDS011;48626;51.678;5.806;2022-07-23T05:32:32;10.75;;;7.50;;
62572;SDS011;48626;51.678;5.806;2022-07-23T05:34:58;11.15;;;7.68;;
62572;SDS011;48626;51.678;5.806;2022-07-23T05:37:24;11.77;;;7.78;;
62572;SDS011;48626;51.678;5.806;2022-07-23T05:39:49;10.00;;;7.80;;
62572;SDS011;48626;51.678;5.806;2022-07-23T05:42:15;12.73;;;8.10;;
62572;SDS011;48626;51.678;5.806;2022-07-23T05:44:41;15.75;;;8.38;;
62572;SDS011;48626;51.678;5.806;2022-07-23T05:47:06;9.82;;;7.88;;
62572;SDS011;48626;51.678;5.806;2022-07-23T05:49:32;10.45;;;7.50;;
62572;SDS011;48626;51.678;5.806;2022-07-23T05:51:58;12.40;;;7.68;;
62572;SDS011;48626;51.678;5.806;2022-07-23T05:54:24;10.52;;;7.57;;
62572;SDS011;48626;51.678;5.806;2022-07-23T05:56:49;13.73;;;8.20;;
62572;SDS011;48626;51.678;5.806;2022-07-23T05:59:15;11.73;;;8.05;;
62572;SDS011;48626;51.678;5.806;2022-07-23T06:01:41;11.25;;;7.53;;
62572;SDS011;48626;51.678;5.806;2022-07-23T06:04:07;15.07;;;8.02;;
62572;SDS011;48626;51.678;5.806;2022-07-23T06:06:33;11.82;;;7.60;;
62572;SDS011;48626;51.678;5.806;2022-07-23T06:08:58;12.52;;;7.95;;
62572;SDS011;48626;51.678;5.806;2022-07-23T06:11:24;11.57;;;7.50;;
62572;SDS011;48626;51.678;5.806;2022-07-23T06:13:49;15.73;;;7.68;;
62572;SDS011;48626;51.678;5.806;2022-07-23T06:16:15;21.05;;;7.85;;
62572;SDS011;48626;51.678;5.806;2022-07-23T06:18:41;16.38;;;7.18;;
62572;SDS011;48626;51.678;5.806;2022-07-23T06:21:06;15.57;;;6.97;;
62572;SDS011;48626;51.678;5.806;2022-07-23T06:23:32;11.55;;;6.72;;
62572;SDS011;48626;51.678;5.806;2022-07-23T06:25:59;9.18;;;7.00;;
62572;SDS011;48626;51.678;5.806;2022-07-23T06:28:24;15.80;;;6.88;;
62572;SDS011;48626;51.678;5.806;2022-07-23T06:30:50;10.65;;;6.82;;
62572;SDS011;48626;51.678;5.806;2022-07-23T06:33:15;9.77;;;6.60;;
62572;SDS011;48626;51.678;5.806;2022-07-23T06:35:41;8.75;;;6.32;;
62572;SDS011;48626;51.678;5.806;2022-07-23T06:38:07;12.20;;;6.85;;
62572;SDS011;48626;51.678;5.806;2022-07-23T06:40:32;10.20;;;6.65;;
62572;SDS011;48626;51.678;5.806;2022-07-23T06:42:58;9.40;;;6.38;;
62572;SDS011;48626;51.678;5.806;2022-07-23T06:45:24;8.52;;;6.35;;
62572;SDS011;48626;51.678;5.806;2022-07-23T06:47:49;12.02;;;5.97;;
62572;SDS011;48626;51.678;5.806;2022-07-23T06:50:15;9.10;;;5.72;;
62572;SDS011;48626;51.678;5.806;2022-07-23T06:52:41;12.80;;;5.72;;
62572;SDS011;48626;51.678;5.806;2022-07-23T06:55:06;12.43;;;5.82;;
62572;SDS011;48626;51.678;5.806;2022-07-23T06:57:32;8.35;;;4.97;;
62572;SDS011;48626;51.678;5.806;2022-07-23T06:59:58;10.07;;;5.18;;
62572;SDS011;48626;51.678;5.806;2022-07-23T07:02:23;11.65;;;5.13;;
62572;SDS011;48626;51.678;5.806;2022-07-23T07:04:49;11.32;;;5.50;;
62572;SDS011;48626;51.678;5.806;2022-07-23T07:07:15;10.00;;;5.50;;
62572;SDS011;48626;51.678;5.806;2022-07-23T07:09:40;9.52;;;4.55;;
62572;SDS011;48626;51.678;5.806;2022-07-23T07:12:06;9.55;;;4.72;;
62572;SDS011;48626;51.678;5.806;2022-07-23T07:14:32;12.57;;;5.30;;
62572;SDS011;48626;51.678;5.806;2022-07-23T07:16:57;11.48;;;5.50;;
62572;SDS011;48626;51.678;5.806;2022-07-23T07:19:23;10.48;;;5.10;;
62572;SDS011;48626;51.678;5.806;2022-07-23T07:21:49;12.52;;;4.40;;
62572;SDS011;48626;51.678;5.806;2022-07-23T07:24:14;7.70;;;4.15;;
62572;SDS011;48626;51.678;5.806;2022-07-23T07:26:40;4.90;;;4.10;;
62572;SDS011;48626;51.678;5.806;2022-07-23T07:29:05;11.00;;;4.40;;
62572;SDS011;48626;51.678;5.806;2022-07-23T07:31:31;8.20;;;4.50;;
62572;SDS011;48626;51.678;5.806;2022-07-23T07:33:57;5.93;;;4.10;;
62572;SDS011;48626;51.678;5.806;2022-07-23T07:36:23;9.27;;;3.70;;
62572;SDS011;48626;51.678;5.806;2022-07-23T07:38:49;10.10;;;4.15;;
62572;SDS011;48626;51.678;5.806;2022-07-23T07:41:15;8.93;;;3.60;;
62572;SDS011;48626;51.678;5.806;2022-07-23T07:43:41;10.18;;;4.50;;
62572;SDS011;48626;51.678;5.806;2022-07-23T07:46:06;8.57;;;4.30;;
62572;SDS011;48626;51.678;5.806;2022-07-23T07:48:35;9.15;;;4.03;;
62572;SDS011;48626;51.678;5.806;2022-07-23T07:51:01;6.65;;;3.75;;
62572;SDS011;48626;51.678;5.806;2022-07-23T07:53:28;8.98;;;3.42;;
62572;SDS011;48626;51.678;5.806;2022-07-23T07:55:53;7.75;;;3.33;;
62572;SDS011;48626;51.678;5.806;2022-07-23T07:58:19;9.25;;;3.83;;
62572;SDS011;48626;51.678;5.806;2022-07-23T08:00:45;7.97;;;3.53;;
62572;SDS011;48626;51.678;5.806;2022-07-23T08:03:11;6.85;;;3.38;;
62572;SDS011;48626;51.678;5.806;2022-07-23T08:05:36;6.57;;;3.40;;
62572;SDS011;48626;51.678;5.806;2022-07-23T08:08:02;5.82;;;3.17;;
62572;SDS011;48626;51.678;5.806;2022-07-23T08:10:28;8.90;;;3.70;;
62572;SDS011;48626;51.678;5.806;2022-07-23T08:12:56;5.78;;;3.63;;
62572;SDS011;48626;51.678;5.806;2022-07-23T08:15:23;8.48;;;3.83;;
62572;SDS011;48626;51.678;5.806;2022-07-23T08:17:49;10.30;;;3.85;;
62572;SDS011;48626;51.678;5.806;2022-07-23T08:20:16;7.07;;;3.83;;
62572;SDS011;48626;51.678;5.806;2022-07-23T08:22:48;6.50;;;4.05;;
62572;SDS011;48626;51.678;5.806;2022-07-23T08:25:14;8.25;;;4.22;;
62572;SDS011;48626;51.678;5.806;2022-07-23T08:27:41;5.47;;;4.13;;
62572;SDS011;48626;51.678;5.806;2022-07-23T08:30:07;11.50;;;5.22;;
62572;SDS011;48626;51.678;5.806;2022-07-23T08:32:33;11.07;;;4.25;;
62572;SDS011;48626;51.678;5.806;2022-07-23T08:35:29;8.95;;;4.22;;
62572;SDS011;48626;51.678;5.806;2022-07-23T08:38:02;8.38;;;4.10;;
62572;SDS011;48626;51.678;5.806;2022-07-23T08:40:30;11.55;;;4.13;;
62572;SDS011;48626;51.678;5.806;2022-07-23T08:42:57;7.60;;;3.90;;
62572;SDS011;48626;51.678;5.806;2022-07-23T08:45:24;9.18;;;4.63;;
62572;SDS011;48626;51.678;5.806;2022-07-23T08:47:51;8.85;;;5.00;;
62572;SDS011;48626;51.678;5.806;2022-07-23T08:50:21;8.38;;;4.25;;
62572;SDS011;48626;51.678;5.806;2022-07-23T08:52:48;6.72;;;3.70;;
62572;SDS011;48626;51.678;5.806;2022-07-23T08:55:18;6.47;;;3.60;;
62572;SDS011;48626;51.678;5.806;2022-07-23T08:57:46;9.13;;;4.60;;
62572;SDS011;48626;51.678;5.806;2022-07-23T09:00:14;10.57;;;4.70;;
62572;SDS011;48626;51.678;5.806;2022-07-23T09:02:41;8.40;;;5.05;;
62572;SDS011;48626;51.678;5.806;2022-07-23T09:05:08;7.40;;;4.20;;
62572;SDS011;48626;51.678;5.806;2022-07-23T09:07:36;7.07;;;4.05;;
62572;SDS011;48626;51.678;5.806;2022-07-23T09:10:09;7.70;;;4.00;;
62572;SDS011;48626;51.678;5.806;2022-07-23T09:12:36;6.10;;;3.78;;
62572;SDS011;48626;51.678;5.806;2022-07-23T09:15:03;8.00;;;3.40;;
62572;SDS011;48626;51.678;5.806;2022-07-23T09:17:36;11.25;;;3.55;;
62572;SDS011;48626;51.678;5.806;2022-07-23T09:22:36;7.35;;;3.42;;
62572;SDS011;48626;51.678;5.806;2022-07-23T09:27:54;5.38;;;3.30;;
62572;SDS011;48626;51.678;5.806;2022-07-23T09:30:21;6.82;;;3.90;;
62572;SDS011;48626;51.678;5.806;2022-07-23T09:38:19;8.00;;;3.40;;
62572;SDS011;48626;51.678;5.806;2022-07-23T09:40:46;7.82;;;3.50;;
62572;SDS011;48626;51.678;5.806;2022-07-23T09:43:30;6.38;;;3.40;;
62572;SDS011;48626;51.678;5.806;2022-07-23T09:48:42;7.93;;;4.18;;
62572;SDS011;48626;51.678;5.806;2022-07-23T09:51:08;8.95;;;4.05;;
62572;SDS011;48626;51.678;5.806;2022-07-23T09:53:33;8.82;;;4.38;;
62572;SDS011;48626;51.678;5.806;2022-07-23T09:55:59;7.28;;;3.75;;
62572;SDS011;48626;51.678;5.806;2022-07-23T09:58:25;6.53;;;4.47;;
62572;SDS011;48626;51.678;5.806;2022-07-23T10:00:52;7.22;;;4.25;;
62572;SDS011;48626;51.678;5.806;2022-07-23T10:03:18;8.05;;;3.78;;
62572;SDS011;48626;51.678;5.806;2022-07-23T10:05:45;6.35;;;4.07;;
62572;SDS011;48626;51.678;5.806;2022-07-23T10:08:12;6.18;;;3.70;;
62572;SDS011;48626;51.678;5.806;2022-07-23T10:10:39;5.28;;;3.50;;
62572;SDS011;48626;51.678;5.806;2022-07-23T10:13:05;9.68;;;3.50;;
62572;SDS011;48626;51.678;5.806;2022-07-23T10:15:50;6.65;;;3.30;;
62572;SDS011;48626;51.678;5.806;2022-07-23T10:18:16;6.88;;;3.50;;
62572;SDS011;48626;51.678;5.806;2022-07-23T10:20:42;5.55;;;2.92;;
62572;SDS011;48626;51.678;5.806;2022-07-23T10:23:24;7.70;;;3.15;;
62572;SDS011;48626;51.678;5.806;2022-07-23T10:26:10;8.38;;;3.90;;
62572;SDS011;48626;51.678;5.806;2022-07-23T10:29:10;7.32;;;3.30;;
62572;SDS011;48626;51.678;5.806;2022-07-23T10:31:56;5.47;;;3.72;;
62572;SDS011;48626;51.678;5.806;2022-07-23T10:37:16;4.75;;;3.25;;
62572;SDS011;48626;51.678;5.806;2022-07-23T10:40:10;7.00;;;3.63;;
62572;SDS011;48626;51.678;5.806;2022-07-23T10:42:36;6.65;;;4.60;;
62572;SDS011;48626;51.678;5.806;2022-07-23T10:45:21;8.98;;;4.20;;
62572;SDS011;48626;51.678;5.806;2022-07-23T10:47:54;8.20;;;4.28;;
62572;SDS011;48626;51.678;5.806;2022-07-23T10:50:26;5.20;;;3.58;;
62572;SDS011;48626;51.678;5.806;2022-07-23T10:57:59;5.45;;;3.35;;
62572;SDS011;48626;51.678;5.806;2022-07-23T11:00:30;7.70;;;3.47;;
62572;SDS011;48626;51.678;5.806;2022-07-23T11:03:01;4.95;;;3.10;;
62572;SDS011;48626;51.678;5.806;2022-07-23T11:05:45;6.07;;;3.50;;
62572;SDS011;48626;51.678;5.806;2022-07-23T11:08:12;8.57;;;4.68;;
62572;SDS011;48626;51.678;5.806;2022-07-23T11:21:54;8.57;;;3.42;;
62572;SDS011;48626;51.678;5.806;2022-07-23T11:24:11;5.90;;;3.10;;
62572;SDS011;48626;51.678;5.806;2022-07-23T11:26:53;7.40;;;3.55;;
62572;SDS011;48626;51.678;5.806;2022-07-23T11:36:54;6.28;;;3.58;;
62572;SDS011;48626;51.678;5.806;2022-07-23T11:39:20;8.55;;;3.63;;
62572;SDS011;48626;51.678;5.806;2022-07-23T11:41:47;6.43;;;3.28;;
62572;SDS011;48626;51.678;5.806;2022-07-23T11:44:28;4.93;;;3.45;;
62572;SDS011;48626;51.678;5.806;2022-07-23T11:49:25;5.75;;;3.83;;
62572;SDS011;48626;51.678;5.806;2022-07-23T11:52:05;4.90;;;3.30;;
62572;SDS011;48626;51.678;5.806;2022-07-23T11:54:32;5.45;;;3.13;;
62572;SDS011;48626;51.678;5.806;2022-07-23T11:56:59;4.97;;;3.67;;
62572;SDS011;48626;51.678;5.806;2022-07-23T11:59:26;4.97;;;3.35;;
62572;SDS011;48626;51.678;5.806;2022-07-23T12:02:00;3.95;;;2.90;;
62572;SDS011;48626;51.678;5.806;2022-07-23T12:04:45;6.65;;;3.20;;
62572;SDS011;48626;51.678;5.806;2022-07-23T12:09:56;6.53;;;3.63;;
62572;SDS011;48626;51.678;5.806;2022-07-23T12:12:27;5.63;;;3.72;;
62572;SDS011;48626;51.678;5.806;2022-07-23T12:15:01;6.65;;;3.90;;
62572;SDS011;48626;51.678;5.806;2022-07-23T12:17:31;6.38;;;3.70;;
62572;SDS011;48626;51.678;5.806;2022-07-23T12:19:58;5.57;;;3.53;;
62572;SDS011;48626;51.678;5.806;2022-07-23T12:22:26;6.03;;;3.30;;
62572;SDS011;48626;51.678;5.806;2022-07-23T12:24:59;5.55;;;4.03;;
62572;SDS011;48626;51.678;5.806;2022-07-23T12:27:29;11.90;;;5.78;;
62572;SDS011;48626;51.678;5.806;2022-07-23T12:29:55;6.78;;;3.80;;
62572;SDS011;48626;51.678;5.806;2022-07-23T12:32:25;6.07;;;3.47;;
62572;SDS011;48626;51.678;5.806;2022-07-23T12:35:03;5.90;;;3.65;;
62572;SDS011;48626;51.678;5.806;2022-07-23T12:37:36;7.25;;;3.75;;
62572;SDS011;48626;51.678;5.806;2022-07-23T12:42:54;5.15;;;3.78;;
62572;SDS011;48626;51.678;5.806;2022-07-23T12:45:28;5.70;;;3.30;;
62572;SDS011;48626;51.678;5.806;2022-07-23T12:48:21;9.90;;;6.20;;
62572;SDS011;48626;51.678;5.806;2022-07-23T12:51:01;6.93;;;5.22;;
62572;SDS011;48626;51.678;5.806;2022-07-23T12:53:28;7.72;;;4.30;;
62572;SDS011;48626;51.678;5.806;2022-07-23T12:56:04;5.35;;;3.20;;
62572;SDS011;48626;51.678;5.806;2022-07-23T12:58:47;5.07;;;2.90;;
62572;SDS011;48626;51.678;5.806;2022-07-23T13:06:22;5.97;;;2.90;;
62572;SDS011;48626;51.678;5.806;2022-07-23T13:08:47;5.18;;;3.30;;
62572;SDS011;48626;51.678;5.806;2022-07-23T13:11:13;5.78;;;2.95;;
62572;SDS011;48626;51.678;5.806;2022-07-23T13:13:39;7.97;;;5.50;;
62572;SDS011;48626;51.678;5.806;2022-07-23T13:16:06;6.70;;;4.90;;
62572;SDS011;48626;51.678;5.806;2022-07-23T13:18:32;9.25;;;3.80;;
62572;SDS011;48626;51.678;5.806;2022-07-23T13:20:58;5.03;;;3.03;;
62572;SDS011;48626;51.678;5.806;2022-07-23T13:23:24;8.35;;;3.10;;
62572;SDS011;48626;51.678;5.806;2022-07-23T13:25:50;5.18;;;3.42;;
62572;SDS011;48626;51.678;5.806;2022-07-23T13:28:16;5.10;;;2.83;;
62572;SDS011;48626;51.678;5.806;2022-07-23T13:30:43;6.47;;;2.92;;
62572;SDS011;48626;51.678;5.806;2022-07-23T13:33:10;6.10;;;3.28;;
62572;SDS011;48626;51.678;5.806;2022-07-23T13:35:36;6.93;;;3.30;;
62572;SDS011;48626;51.678;5.806;2022-07-23T13:38:05;5.13;;;3.25;;
62572;SDS011;48626;51.678;5.806;2022-07-23T13:40:35;7.63;;;3.28;;
62572;SDS011;48626;51.678;5.806;2022-07-23T13:43:03;7.78;;;3.40;;
62572;SDS011;48626;51.678;5.806;2022-07-23T13:45:30;5.25;;;3.20;;
62572;SDS011;48626;51.678;5.806;2022-07-23T13:47:56;6.20;;;3.50;;
62572;SDS011;48626;51.678;5.806;2022-07-23T13:50:22;4.75;;;4.03;;
62572;SDS011;48626;51.678;5.806;2022-07-23T13:52:47;6.18;;;3.30;;
62572;SDS011;48626;51.678;5.806;2022-07-23T13:55:13;4.00;;;3.00;;
62572;SDS011;48626;51.678;5.806;2022-07-23T13:57:39;6.13;;;3.22;;
62572;SDS011;48626;51.678;5.806;2022-07-23T14:00:05;5.00;;;3.00;;
62572;SDS011;48626;51.678;5.806;2022-07-23T14:02:33;6.60;;;3.47;;
62572;SDS011;48626;51.678;5.806;2022-07-23T14:05:00;4.47;;;3.15;;
62572;SDS011;48626;51.678;5.806;2022-07-23T14:07:26;6.13;;;4.25;;
62572;SDS011;48626;51.678;5.806;2022-07-23T14:09:51;11.55;;;8.27;;
62572;SDS011;48626;51.678;5.806;2022-07-23T14:12:17;11.02;;;4.03;;
62572;SDS011;48626;51.678;5.806;2022-07-23T14:14:43;6.50;;;3.10;;
62572;SDS011;48626;51.678;5.806;2022-07-23T14:17:08;4.38;;;3.15;;
62572;SDS011;48626;51.678;5.806;2022-07-23T14:19:34;7.25;;;3.35;;
62572;SDS011;48626;51.678;5.806;2022-07-23T14:22:00;8.25;;;3.20;;
62572;SDS011;48626;51.678;5.806;2022-07-23T14:24:26;6.18;;;3.60;;
62572;SDS011;48626;51.678;5.806;2022-07-23T14:26:51;5.03;;;3.10;;
62572;SDS011;48626;51.678;5.806;2022-07-23T14:29:17;6.38;;;3.45;;
62572;SDS011;48626;51.678;5.806;2022-07-23T14:31:43;19.23;;;3.85;;
62572;SDS011;48626;51.678;5.806;2022-07-23T14:34:08;8.20;;;3.53;;
62572;SDS011;48626;51.678;5.806;2022-07-23T14:36:34;8.43;;;3.22;;
62572;SDS011;48626;51.678;5.806;2022-07-23T14:39:00;4.55;;;2.97;;
62572;SDS011;48626;51.678;5.806;2022-07-23T14:41:25;7.15;;;3.20;;
62572;SDS011;48626;51.678;5.806;2022-07-23T14:43:51;5.68;;;3.33;;
62572;SDS011;48626;51.678;5.806;2022-07-23T14:46:16;21.60;;;17.92;;
62572;SDS011;48626;51.678;5.806;2022-07-23T14:48:42;9.20;;;5.22;;
62572;SDS011;48626;51.678;5.806;2022-07-23T14:51:08;7.53;;;3.85;;
62572;SDS011;48626;51.678;5.806;2022-07-23T14:53:33;6.88;;;3.25;;
62572;SDS011;48626;51.678;5.806;2022-07-23T14:55:59;6.22;;;3.47;;
62572;SDS011;48626;51.678;5.806;2022-07-23T14:58:24;4.80;;;2.97;;
62572;SDS011;48626;51.678;5.806;2022-07-23T15:00:50;6.43;;;3.08;;
62572;SDS011;48626;51.678;5.806;2022-07-23T15:03:16;7.18;;;3.30;;
62572;SDS011;48626;51.678;5.806;2022-07-23T15:05:42;6.68;;;3.20;;
62572;SDS011;48626;51.678;5.806;2022-07-23T15:08:08;6.10;;;3.05;;
62572;SDS011;48626;51.678;5.806;2022-07-23T15:10:34;6.47;;;3.30;;
62572;SDS011;48626;51.678;5.806;2022-07-23T15:13:00;6.18;;;3.30;;
62572;SDS011;48626;51.678;5.806;2022-07-23T15:15:26;6.65;;;3.30;;
62572;SDS011;48626;51.678;5.806;2022-07-23T15:17:51;12.30;;;3.20;;
62572;SDS011;48626;51.678;5.806;2022-07-23T15:20:17;8.80;;;3.10;;
62572;SDS011;48626;51.678;5.806;2022-07-23T15:22:43;5.78;;;3.00;;
62572;SDS011;48626;51.678;5.806;2022-07-23T15:25:10;6.90;;;3.78;;
62572;SDS011;48626;51.678;5.806;2022-07-23T15:27:36;9.13;;;4.40;;
62572;SDS011;48626;51.678;5.806;2022-07-23T15:30:03;6.30;;;3.47;;
62572;SDS011;48626;51.678;5.806;2022-07-23T15:32:29;7.35;;;3.50;;
62572;SDS011;48626;51.678;5.806;2022-07-23T15:34:54;11.55;;;3.83;;
62572;SDS011;48626;51.678;5.806;2022-07-23T15:37:20;5.65;;;3.28;;